Extreme weather reports worldwide

High gusts

Station
 
Location
 
Name
 
Wind
Knots
Gust
Knots
Vis
SM
Temp/Dew
C
Baro
inHg
METAR
 
ENDR 44 54 4/-2 29.70 ENDR 280950Z AUTO 28044G54KT 9999NDV BKN037/// 04/M02 Q1006 W///S6
ENNE 41 51 5.59 2/-2 29.50 ENNE 280950Z 30041G51KT 9000 -SHRA SCT020 BKN030 02/M02 Q0999 W///S6
ENUN 37 50 2/-2 29.35 ENUN 280950Z AUTO 27037G50KT 9999NDV -SHRA BKN020/// OVC057/// 02/M02 Q0994 W07/S7
KUS BGKK Kulusuk, GL Kulusuk Airport 32 47 -4/-5 29.14 BGKK 280950Z AUTO 09032G47KT 0400NDV SN OVC012/// M04/M05 Q0987 RESN
RET ENRS NO Røst Airport 30 41 6.21 1/-2 29.29 ENRS 280950Z 27030G41KT 9999 VCSH FEW016 SCT027 01/M02 Q0992

Station
 
Location
 
Name
 
Wind
Knots
Gust
Knots
Vis
SM
Temp/Dew
C
Baro
inHg
METAR
 
OTZ PAOT Kotzebue, US Ralph Wien Memorial Airport 32 40 0.25 -12/-13 30.37 PAOT 280953Z AUTO 10032G40KT 1/4SM R09/2600V4500FT SN FZFG VV014 M13/M14 A3037 RMK AO2 PK WND 10040/0950 PRESFR SLP283 P0001 T11281139 TSNO $
PUQ SCCI Punta Arenas, CL Pdte. Carlos Ibañez del Campo Airport 28 39 6.21 11/6 29.38 SCCI 281000Z 28028G39KT 9999 FEW040 11/06 Q0995 NOSIG
CXR VVCR Nha Trang, VN Cam Ranh Airport 24 37 6.21 25/17 29.91 VVCR 280930Z 04024G37KT 9999 FEW015 SCT060 25/17 Q1013 NOSIG
KMWN 30 37 0.13 -13/-13 KMWN 280947Z 21030G37KT 1/8SM FZFG DRSN VV001 M13/M13 RMK VRY LGT ICG
KHHV 29 37 10 21/16 30.08 KHHV 280955Z AUTO 15029G37KT 10SM SCT028 BKN070 21/16 A3008 RMK A01
VEY BIVM Vestmannaeyjar, IS Vestmannaeyjar Airport 27 37 2.49 5/4 29.65 BIVM 281000Z 21027G37KT 4000 +RA OVC015 05/04 Q1004
CWRU 30 36 5/ CWRU 280900Z AUTO 35030G36KT 06/ RMK AO1 PK WND 34036/0856 SLP219 T0057 56011
OGN ROYN JP Yonaguni Airport 24 36 6.21 13/7 30.21 ROYN 280900Z AUTO 02024G36KT 9999 SCT034 BKN038 BKN044 13/07 Q1023
IWJ RJOW Masuda, JP Iwami Airport 20 35 6.21 1/-7 30.09 RJOW 280900Z 31020G35KT 9999 -SHSN FEW015 SCT030 BKN040 01/M07 Q1019
PLZ FAPE Port Elizabeth, ZA Port Elizabeth Airport 24 35 6.21 25/18 29.82 FAPE 280938Z 24024G35KT 9999 FEW020 25/18 Q1010 NOSIG
CWGL 25 34 0/-1 CWGL 280900Z AUTO 26025G34KT M00/M02 RMK AO1 PK WND 26034/0851 SLP077 T10031015 53023
LEBR 23 34 6.21 5/-2 30.15 LEBR 280930Z AUTO 34023G34KT 9999 NCD 05/M02 Q1021
KGVQ Batavia, US Genesee County Airport 24 34 10 2/-1 29.88 KGVQ 280956Z AUTO 24024G34KT 10SM BKN024 OVC060 03/M02 A2988 RMK AO2 PK WND 26034/0951 RAE20 SLP127 P0000 T00281017
LIVT 15 33 5/-4 30.06 LIVT 280855Z AUTO 06015G33KT 340V090 //// 05/M04 Q1018
KSU ENKB Kvernberget, NO Kristiansund Airport (Kvernberget) 21 33 6.21 5/-1 29.85 ENKB 280950Z AUTO 26021G33KT 9999 FEW030/// BKN069/// 05/M01 Q1011 RMK WIND 745FT 27028G38KT
CJU RKPC Jeju City, KR Jeju International Airport 16 32 6.21 4/-6 30.21 RKPC 280900Z 32016G32KT 290V350 9999 FEW015 BKN025 04/M06 Q1023 WS ALL RWY NOSIG
UNN VTSR TH Ranong Airport 20 32 6.21 28/20 29.68 VTSR 280900Z 10020G32KT 060V130 9999 FEW025 BKN100 28/20 Q1005 NOSIG
XOG LFMO Orange/Caritat, FR Orange-Caritat (BA 115) Air Base 19 32 6.21 3/-3 30.09 LFMO 280930Z AUTO 36019G32KT CAVOK 03/M03 Q1019 NOSIG
TKN RJKN Tokunoshima, JP Tokunoshima Airport 22 32 6.21 11/7 30.12 RJKN 280940Z AUTO 33022G32KT 9999 SCT030 SCT034 BKN038 11/07 Q1020 RMK A3013
AIA KAIA Alliance, US Alliance Municipal Airport 24 32 10 -5/-7 29.76 KAIA 280953Z AUTO 01024G32KT 10SM BKN007 BKN014 OVC021 M06/M07 A2976 RMK AO2 PK WND 01032/0939 SNB04E24 CIG 007V012 SLP102 P0000 T10561072
DKK KDKK Dunkirk, US Chautauqua County-Dunkirk Airport 19 32 10 3/-1 29.99 KDKK 280953Z AUTO 24019G32KT 10SM BKN024 OVC050 03/M02 A2999 RMK AO2 PK WND 25036/0855 SLP162 T00331017
KEKS Ennis, US Ennis Big Sky Airport 26 32 0.5 -7/-8 29.82 KEKS 280955Z AUTO 34026G32KT 1/2SM -SN OVC003 M07/M08 A2982 RMK AO2
KWA PKWA Kwajalein, MH Bucholz Army Air Field 22 32 10 27/21 29.81 PKWA 281000Z AUTO 08022G32KT 10SM CLR 28/22 A2981 RMK AO2 T02760216
BUF KBUF Buffalo, US Buffalo Niagara International Airport 18 31 10 2/-1 29.93 KBUF 280954Z 25018G31KT 10SM SCT024 OVC065 03/M01 A2993 RMK AO2 PK WND 24040/0923 SLP143 T00281011
KGYF 25 31 10 / 30.09 KGYF 280955Z AUTO 13025G31KT 10SM SCT030 OVC065 A3009 RMK AO2
KRVF 25 31 2 -6/-7 29.82 KRVF 280955Z AUTO 02025G31KT 2SM -SN OVC003 M06/M07 A2982 RMK AO2 VIS 3/4V5
ORV PFNO Noorvik, US Robert (Bob) Curtis Memorial Airport 26 31 0.5 -13/-14 30.44 PFNO 280958Z AUTO 06026G31KT 1/2SM -SN FZFG FEW001 BKN012 M13/M14 A3044 RMK AO2 PK WND 06028/0958 P0000 FZRANO $
ALL LIMG Albenga (SV), IT Villanova D'Albenga International Airport 17 30 6.21 6/-4 30.03 LIMG 280850Z 33017G30KT 290V030 9999 SCT040 06/M04 Q1017
CPIN 24 30 / CPIN 280900Z AUTO 31024G30KT ////SM ////// ///// A////
YCO CYCO Kugluktuk, CA Kugluktuk Airport 23 30 0 -24/-26 30.58 CYCO 280900Z 34023G30KT 0SM BLSN VV006 M24/M26 A3058 RMK BLSN8 SLP362
KIJ RJSN Niigata, JP Niigata Airport 20 30 1.86 0/-2 29.85 RJSN 280925Z 30020G30KT 3000 -SHSN FEW010 SCT020 BKN025 M00/M02 Q1011 RMK 1CU010 4CU020 7CU025 A2986 MOD TURB OBS AT 0916Z 25NM SW RJSN 13000FT IN DES E190
ZAZ LEZG Zaragoza, ES Zaragoza Air Base 19 30 6.21 6/-2 30.12 LEZG 280930Z 30019G30KT CAVOK 06/M02 Q1020
HLN KHLN Helena, US Helena Regional Airport 22 30 8 -7/-12 30.03 KHLN 280953Z AUTO 34022G30KT 8SM OVC029 M08/M12 A3003 RMK AO2 PK WND 36037/0918 SLP226 T10781122
IAG KIAG Niagara Falls, US Niagara Falls International Airport 20 30 10 3/-1 29.92 KIAG 280953Z AUTO 25020G30KT 10SM SCT026 BKN031 OVC070 03/M01 A2992 RMK AO2 PK WND 22034/0916 SLP146 T00331011 $
KC99 18 30 -12/-13 29.70 KC99 280955Z AUTO 31018G30KT M12/M13 A2970 RMK AO2
FCA KGPI Kalispell, US Glacier Park International Airport 23 30 10 -5/-11 30.06 KGPI 280955Z AUTO 03023G30KT 10SM OVC055 M06/M11 A3006 RMK AO2 PK WND 03033/0905 SLP209 T10561111
JHW KJHW Jamestown, US Chautauqua County-Jamestown Airport 22 30 10 0/-4 29.96 KJHW 280956Z AUTO 26022G30KT 10SM SCT025 BKN035 OVC043 01/M04 A2996 RMK AO2 PK WND 27030/0949 RAE29 SLP172 P0000 T00061044 FZRANO
RODE JP Ie Shima Auxiliary Air Base 15 29 11/6 30.17 RODE 280859Z AUTO 01015G29KT FEW035 BKN049 BKN060 12/06 A3017 RMK AO2 PK WND 35034/0847 SLP259 60000 T01170061 53016 $
PXO LPPS Vila Baleira, PT Porto Santo Airport 19 29 6.21 13/10 30.27 LPPS 280930Z 03019G29KT 360V060 9999 SCT014 SCT030 13/10 Q1025
VTN KVTN Valentine, US Miller Field 22 29 4 -7/-8 29.89 KVTN 280952Z AUTO 05022G29KT 4SM UP BR BKN013 OVC018 M07/M09 A2989 RMK AO2 PK WND 06030/0912 UPB52SNE52 SLP151 P0000 T10721089
YTZ CYTZ Toronto, CA Billy Bishop Toronto City Centre Airport 24 29 9 2/-2 29.89 CYTZ 280958Z AUTO 30024G29KT 250V320 9SM -RA BKN025 BKN034 OVC042 02/M02 A2989 RMK SLP127
CWCI 20 28 -7/-9 CWCI 280900Z AUTO 31020G28KT M08/M09 RMK AO1 PK WND 31038/0818 SLP131 T10771094 51059
CWNC 23 28 2/1 CWNC 280900Z AUTO 25023G28KT 03/01 RMK AO1 SOG 08 3008 PK WND 24028/0818 SLP098 T00270010
CXSE 22 28 -29/-32 CXSE 280900Z AUTO 33022G28KT M30/M33 RMK AO1 SOG 05 5003 PK WND 34029/0808 SLP206 T12981329
XCM CYCK Chatham-Kent, CA Chatham Kent Airport 21 28 9 -1/-6 29.99 CYCK 280900Z AUTO 29021G28KT 9SM BKN036 M01/M06 A2999 RMK SLP168